createdAt,value
2022-11-06T00:01:28.062Z,71.71
2022-11-06T00:03:55.047Z,71.21
2022-11-06T00:06:40.164Z,71.29
2022-11-06T00:09:08.055Z,71.71
2022-11-06T00:11:34.773Z,72.14
2022-11-06T00:14:01.925Z,73.66
2022-11-06T00:16:28.833Z,72.57
2022-11-06T00:18:55.295Z,72.79
2022-11-06T00:21:26.531Z,72.70
2022-11-06T00:23:53.539Z,72.25
2022-11-06T00:26:21.604Z,71.97
2022-11-06T00:28:48.669Z,72.39
2022-11-06T00:31:16.371Z,73.02
2022-11-06T00:33:43.287Z,73.15
2022-11-06T00:36:11.980Z,73.77
2022-11-06T00:38:38.544Z,73.57
2022-11-06T00:41:06.433Z,74.18
2022-11-06T00:43:33.814Z,73.72
2022-11-06T00:46:01.251Z,73.89
2022-11-06T00:48:27.939Z,74.12
2022-11-06T00:50:54.381Z,73.52
2022-11-06T00:53:21.108Z,72.63
2022-11-06T00:55:47.560Z,72.44
2022-11-06T00:58:14.564Z,71.64
2022-11-06T01:00:41.212Z,72.20
2022-11-06T01:03:07.761Z,71.88
2022-11-06T01:05:34.292Z,71.97
2022-11-06T01:08:00.725Z,71.29
2022-11-06T01:10:27.172Z,70.18
2022-11-06T01:12:53.621Z,69.93
2022-11-06T01:15:20.111Z,70.05
2022-11-06T01:17:46.630Z,69.70
2022-11-06T01:20:13.050Z,70.02
2022-11-06T01:22:39.503Z,69.62
2022-11-06T01:25:06.330Z,69.54
2022-11-06T01:27:32.830Z,69.01
2022-11-06T01:29:59.507Z,69.41
2022-11-06T01:32:25.972Z,68.89
2022-11-06T01:34:52.499Z,68.26
2022-11-06T01:37:19.085Z,67.85
2022-11-06T01:39:45.561Z,67.01
2022-11-06T01:42:13.330Z,66.52
2022-11-06T01:44:42.804Z,66.10
2022-11-06T01:47:19.938Z,65.78
2022-11-06T01:49:46.608Z,65.50
2022-11-06T01:52:14.570Z,65.34
2022-11-06T01:54:43.411Z,64.90
2022-11-06T01:57:11.036Z,64.86
2022-11-06T01:59:39.768Z,64.75
2022-11-06T02:02:06.799Z,64.04
2022-11-06T02:04:37.730Z,64.16
2022-11-06T02:07:05.403Z,64.02
2022-11-06T02:09:33.087Z,64.09
2022-11-06T02:12:05.493Z,63.96
2022-11-06T02:14:40.581Z,63.82
2022-11-06T02:17:10.162Z,63.71
2022-11-06T02:19:49.157Z,63.67
2022-11-06T02:22:27.916Z,63.37
2022-11-06T02:25:15.060Z,63.50
2022-11-06T02:27:46.208Z,62.37
2022-11-06T02:30:14.114Z,62.91
2022-11-06T02:32:43.602Z,62.94
2022-11-06T02:35:23.014Z,62.35
2022-11-06T02:37:53.901Z,62.14
2022-11-06T02:40:21.942Z,62.09
2022-11-06T02:42:50.435Z,62.24
2022-11-06T02:45:19.077Z,62.03
2022-11-06T02:47:47.872Z,62.01
2022-11-06T02:50:21.046Z,61.83
2022-11-06T02:52:50.313Z,60.89
2022-11-06T02:55:31.511Z,61.21
2022-11-06T02:58:01.101Z,61.83
2022-11-06T03:00:27.994Z,61.69
2022-11-06T03:03:03.257Z,61.35
2022-11-06T03:05:32.928Z,61.46
2022-11-06T03:08:08.714Z,61.93
2022-11-06T03:10:45.396Z,61.57
2022-11-06T03:13:18.048Z,61.95
2022-11-06T03:15:53.048Z,62.05
2022-11-06T03:18:22.512Z,62.37
2022-11-06T03:20:48.951Z,62.09
2022-11-06T03:23:18.419Z,62.07
2022-11-06T03:25:51.035Z,62.09
2022-11-06T03:28:31.133Z,61.71
2022-11-06T03:31:00.179Z,62.15
2022-11-06T03:33:38.329Z,61.87
2022-11-06T03:36:10.672Z,61.62
2022-11-06T03:38:43.362Z,61.70
2022-11-06T03:41:28.382Z,61.59
2022-11-06T03:43:57.875Z,61.67
2022-11-06T03:46:26.143Z,61.03
2022-11-06T03:48:55.535Z,61.38
2022-11-06T03:51:25.180Z,61.41
2022-11-06T03:53:53.738Z,61.36
2022-11-06T03:56:46.539Z,61.67
2022-11-06T03:59:15.212Z,61.69
2022-11-06T04:01:45.359Z,61.53
2022-11-06T04:04:15.734Z,61.91
2022-11-06T04:06:53.490Z,60.78
2022-11-06T04:09:40.170Z,61.28
2022-11-06T04:12:27.676Z,64.18
2022-11-06T04:14:56.749Z,64.97
2022-11-06T04:17:24.286Z,64.17
2022-11-06T04:19:52.533Z,71.39
2022-11-06T04:22:22.350Z,75.12
2022-11-06T04:25:22.595Z,76.53
2022-11-06T04:28:15.837Z,77.86
2022-11-06T04:30:51.574Z,80.71
2022-11-06T04:33:32.507Z,82.62
2022-11-06T04:35:58.928Z,82.17
2022-11-06T04:38:31.081Z,79.93
2022-11-06T04:40:57.553Z,76.85
2022-11-06T04:43:36.247Z,79.07
2022-11-06T04:46:04.723Z,82.43
2022-11-06T04:48:31.567Z,84.13
2022-11-06T04:51:03.471Z,85.10
2022-11-06T04:53:31.319Z,83.27
2022-11-06T04:56:01.286Z,85.82
2022-11-06T04:58:27.741Z,86.56
2022-11-06T05:00:54.229Z,87.76
2022-11-06T05:03:20.781Z,88.54
2022-11-06T05:05:47.273Z,88.25
2022-11-06T05:08:15.875Z,86.68
2022-11-06T05:10:43.502Z,87.25
2022-11-06T05:13:10.070Z,87.80
2022-11-06T05:15:36.533Z,87.36
2022-11-06T05:18:03.151Z,87.09
2022-11-06T05:20:29.849Z,87.30
2022-11-06T05:23:00.729Z,88.03
2022-11-06T05:25:29.376Z,88.23
2022-11-06T05:27:56.231Z,88.19
2022-11-06T05:30:23.229Z,88.16
2022-11-06T05:32:50.110Z,88.60
2022-11-06T05:35:17.256Z,88.92
2022-11-06T05:37:43.681Z,88.57
2022-11-06T05:40:10.431Z,88.05
2022-11-06T05:42:40.790Z,87.93
2022-11-06T05:45:07.730Z,87.71
2022-11-06T05:47:34.662Z,88.50
2022-11-06T05:50:01.173Z,89.23
2022-11-06T05:52:27.640Z,89.63
2022-11-06T05:54:54.153Z,89.41
2022-11-06T05:57:20.692Z,88.87
2022-11-06T05:59:47.157Z,89.03
2022-11-06T06:02:13.766Z,89.11
2022-11-06T06:04:40.409Z,89.21
2022-11-06T06:07:06.857Z,88.88
2022-11-06T06:09:33.392Z,89.23
2022-11-06T06:11:59.993Z,89.02
2022-11-06T06:14:26.487Z,89.88
2022-11-06T06:16:53.057Z,89.78
2022-11-06T06:19:19.552Z,90.87
2022-11-06T06:21:46.336Z,84.37
2022-11-06T06:24:12.875Z,80.32
2022-11-06T06:26:39.427Z,79.42
2022-11-06T06:29:05.936Z,80.44
2022-11-06T06:31:32.409Z,80.68
2022-11-06T06:33:58.907Z,82.42
2022-11-06T06:36:25.429Z,82.01
2022-11-06T06:38:51.864Z,81.48
2022-11-06T06:41:18.332Z,82.34
2022-11-06T06:43:47.280Z,80.34
2022-11-06T06:46:13.949Z,77.58
2022-11-06T06:48:40.402Z,77.22
2022-11-06T06:51:07.977Z,74.68
2022-11-06T06:53:34.911Z,74.61
2022-11-06T06:56:02.120Z,74.56
2022-11-06T06:58:29.547Z,71.75
2022-11-06T07:00:59.226Z,73.26
2022-11-06T07:03:25.791Z,71.99
2022-11-06T07:05:52.245Z,70.37
2022-11-06T07:08:18.774Z,72.02
2022-11-06T07:10:45.476Z,70.48
2022-11-06T07:13:12.113Z,70.31
2022-11-06T07:15:38.807Z,68.96
2022-11-06T07:18:06.300Z,67.89
2022-11-06T07:20:33.736Z,65.44
2022-11-06T07:23:04.821Z,67.86
2022-11-06T07:25:31.846Z,66.52
2022-11-06T07:28:05.176Z,65.33
2022-11-06T07:30:32.317Z,63.19
2022-11-06T07:33:05.877Z,63.82
2022-11-06T07:35:33.529Z,64.61
2022-11-06T07:38:02.653Z,59.17
2022-11-06T07:40:29.234Z,61.59
2022-11-06T07:42:55.711Z,60.25
2022-11-06T07:45:22.171Z,61.20
2022-11-06T07:47:48.636Z,59.54
2022-11-06T07:50:15.291Z,56.10
2022-11-06T07:52:41.780Z,57.00
2022-11-06T07:55:08.539Z,57.89
2022-11-06T07:57:35.951Z,58.16
2022-11-06T08:00:02.482Z,56.72
2022-11-06T08:02:39.207Z,58.58
2022-11-06T08:05:05.899Z,57.92
2022-11-06T08:07:32.388Z,57.93
2022-11-06T08:09:58.818Z,57.62
2022-11-06T08:12:25.270Z,55.02
2022-11-06T08:14:51.720Z,58.15
2022-11-06T08:17:18.184Z,58.08
2022-11-06T08:19:44.620Z,56.24
2022-11-06T08:22:11.176Z,54.53
2022-11-06T08:24:37.591Z,54.12
2022-11-06T08:27:04.132Z,53.75
2022-11-06T08:29:31.071Z,50.67
2022-11-06T08:31:57.533Z,50.58
2022-11-06T08:34:24.057Z,52.47
2022-11-06T08:36:51.958Z,55.52
2022-11-06T08:39:18.402Z,53.22
2022-11-06T08:41:45.204Z,52.38
2022-11-06T08:44:11.933Z,52.94
2022-11-06T08:46:38.415Z,52.79
2022-11-06T08:49:04.874Z,53.12
2022-11-06T08:51:31.312Z,53.50
2022-11-06T08:53:58.727Z,52.53
2022-11-06T08:56:25.277Z,52.85
2022-11-06T08:58:55.532Z,53.74
2022-11-06T09:01:24.085Z,52.93
2022-11-06T09:03:50.787Z,50.96
2022-11-06T09:06:17.586Z,54.20
2022-11-06T09:08:44.009Z,51.60
2022-11-06T09:11:11.928Z,48.81
2022-11-06T09:13:38.368Z,50.90
2022-11-06T09:16:08.954Z,50.72
2022-11-06T09:18:37.922Z,49.15
2022-11-06T09:21:04.468Z,47.27
2022-11-06T09:23:31.213Z,47.33
2022-11-06T09:25:58.107Z,46.11
2022-11-06T09:28:24.789Z,46.51
2022-11-06T09:30:51.413Z,46.94
2022-11-06T09:33:18.203Z,47.02
2022-11-06T09:35:45.011Z,48.48
2022-11-06T09:38:12.237Z,47.03
2022-11-06T09:40:46.790Z,45.97
2022-11-06T09:43:43.185Z,44.93
2022-11-06T09:46:21.435Z,45.48
2022-11-06T09:48:51.404Z,48.29
2022-11-06T09:51:24.248Z,47.13
2022-11-06T09:53:56.384Z,47.21
2022-11-06T09:56:25.777Z,46.83
2022-11-06T09:58:52.941Z,48.54
2022-11-06T10:01:29.650Z,47.33
2022-11-06T10:03:57.489Z,47.05
2022-11-06T10:06:24.561Z,46.95
2022-11-06T10:08:52.692Z,47.71
2022-11-06T10:11:19.152Z,47.55
2022-11-06T10:14:11.908Z,46.47
2022-11-06T10:16:50.233Z,47.00
2022-11-06T10:19:16.655Z,46.49
2022-11-06T10:21:56.512Z,47.71
2022-11-06T10:24:29.002Z,46.79
2022-11-06T10:26:56.632Z,47.41
2022-11-06T10:29:23.038Z,48.00
2022-11-06T10:32:02.519Z,47.00
2022-11-06T10:34:38.281Z,46.92
2022-11-06T10:37:18.355Z,45.53
2022-11-06T10:39:47.040Z,45.92
2022-11-06T10:42:18.180Z,45.61
2022-11-06T10:44:48.222Z,45.59
2022-11-06T10:47:21.895Z,43.83
2022-11-06T10:49:51.041Z,44.24
2022-11-06T10:52:36.198Z,43.38
2022-11-06T10:55:15.742Z,43.30
2022-11-06T10:57:42.166Z,41.74
2022-11-06T11:00:11.763Z,41.11
2022-11-06T11:02:40.451Z,41.99
2022-11-06T11:05:14.441Z,40.77
2022-11-06T11:07:42.169Z,41.34
2022-11-06T11:10:23.784Z,39.72
2022-11-06T11:12:57.556Z,40.08
2022-11-06T11:15:25.745Z,39.48
2022-11-06T11:18:09.698Z,37.63
2022-11-06T11:20:37.101Z,38.35
2022-11-06T11:23:07.017Z,38.96
2022-11-06T11:25:33.831Z,40.29
2022-11-06T11:28:13.242Z,38.64
2022-11-06T11:30:39.801Z,39.79
2022-11-06T11:33:12.645Z,39.21
2022-11-06T11:35:39.399Z,39.27
2022-11-06T11:38:14.458Z,38.67
2022-11-06T11:40:41.467Z,38.48
2022-11-06T11:43:27.795Z,38.67
2022-11-06T11:46:03.587Z,38.64
2022-11-06T11:48:43.449Z,37.72
2022-11-06T11:51:23.188Z,37.29
2022-11-06T11:53:50.256Z,36.33
2022-11-06T11:56:31.281Z,37.36
2022-11-06T11:59:06.261Z,38.29
2022-11-06T12:01:38.179Z,37.30
2022-11-06T12:04:24.948Z,37.78
2022-11-06T12:06:56.644Z,38.27
2022-11-06T12:09:23.669Z,38.66
2022-11-06T12:11:51.420Z,38.34
2022-11-06T12:14:29.337Z,37.60
2022-11-06T12:17:17.815Z,38.25
2022-11-06T12:19:47.214Z,39.11
2022-11-06T12:22:19.428Z,39.67
2022-11-06T12:24:53.255Z,40.78
2022-11-06T12:27:31.710Z,40.14
2022-11-06T12:30:13.072Z,39.84
2022-11-06T12:32:54.169Z,42.22
2022-11-06T12:35:25.253Z,42.68
2022-11-06T12:38:12.939Z,40.90
2022-11-06T12:40:41.379Z,41.88
2022-11-06T12:43:16.790Z,41.83
2022-11-06T12:45:57.278Z,41.95
2022-11-06T12:48:42.364Z,42.82
2022-11-06T12:51:19.144Z,42.80
2022-11-06T12:53:45.641Z,43.44
2022-11-06T12:56:21.929Z,43.23
2022-11-06T12:58:51.186Z,42.40
2022-11-06T13:01:27.905Z,42.23
2022-11-06T13:04:02.780Z,42.01
2022-11-06T13:06:36.481Z,41.48
2022-11-06T13:09:13.958Z,41.45
2022-11-06T13:11:46.007Z,41.86
2022-11-06T13:14:34.476Z,39.73
2022-11-06T13:17:05.787Z,39.94
2022-11-06T13:19:41.019Z,40.86
2022-11-06T13:22:10.544Z,40.56
2022-11-06T13:24:37.811Z,39.14
2022-11-06T13:27:19.270Z,39.30
2022-11-06T13:29:46.164Z,39.04
2022-11-06T13:32:16.474Z,39.52
2022-11-06T13:34:44.976Z,38.67
2022-11-06T13:37:24.212Z,38.34
2022-11-06T13:39:55.434Z,39.17
2022-11-06T13:42:36.569Z,39.06
2022-11-06T13:45:04.149Z,39.75
2022-11-06T13:47:38.702Z,40.68
2022-11-06T13:50:13.534Z,40.09
2022-11-06T13:52:50.081Z,39.35
2022-11-06T13:55:36.046Z,40.85
2022-11-06T13:58:18.016Z,41.58
2022-11-06T14:00:50.254Z,40.82
2022-11-06T14:03:19.739Z,40.75
2022-11-06T14:06:00.340Z,40.76
2022-11-06T14:08:39.075Z,40.98
2022-11-06T14:11:05.536Z,41.86
2022-11-06T14:13:33.883Z,43.09
2022-11-06T14:16:05.241Z,42.83
2022-11-06T14:18:32.586Z,42.96
2022-11-06T14:21:17.841Z,42.87
2022-11-06T14:23:47.775Z,41.89
2022-11-06T14:26:34.156Z,42.51
2022-11-06T14:29:20.511Z,41.70
2022-11-06T14:32:12.659Z,41.73
2022-11-06T14:34:40.122Z,40.56
2022-11-06T14:37:18.812Z,40.65
2022-11-06T14:39:51.650Z,40.16
2022-11-06T14:42:38.379Z,40.46
2022-11-06T14:45:31.092Z,40.18
2022-11-06T14:47:57.542Z,41.13
2022-11-06T14:50:37.364Z,41.35
2022-11-06T14:53:07.215Z,42.28
2022-11-06T14:55:45.099Z,42.92
2022-11-06T14:58:17.754Z,43.90
2022-11-06T15:00:48.804Z,44.19
2022-11-06T15:03:20.525Z,44.62
2022-11-06T15:05:52.099Z,44.96
2022-11-06T15:08:37.825Z,46.72
2022-11-06T15:11:04.339Z,47.13
2022-11-06T15:13:31.062Z,47.12
2022-11-06T15:16:10.033Z,48.23
2022-11-06T15:18:36.752Z,48.83
2022-11-06T15:21:05.861Z,51.27
2022-11-06T15:23:40.713Z,52.80
2022-11-06T15:26:25.883Z,54.78
2022-11-06T15:29:12.991Z,53.30
2022-11-06T15:31:40.780Z,55.37
2022-11-06T15:34:23.165Z,55.36
2022-11-06T15:36:53.300Z,56.25
2022-11-06T15:39:28.985Z,58.36
2022-11-06T15:41:56.614Z,60.00
2022-11-06T15:44:23.977Z,59.75
2022-11-06T15:46:58.199Z,61.92
2022-11-06T15:49:25.618Z,63.22
2022-11-06T15:51:53.640Z,63.70
2022-11-06T15:54:33.329Z,62.97
2022-11-06T15:57:05.232Z,62.84
2022-11-06T15:59:31.712Z,63.83
2022-11-06T16:01:58.264Z,65.16
2022-11-06T16:04:25.691Z,65.18
2022-11-06T16:06:53.368Z,65.15
2022-11-06T16:09:25.343Z,64.69
2022-11-06T16:11:53.108Z,64.49
2022-11-06T16:14:20.347Z,65.12
2022-11-06T16:16:48.724Z,64.23
2022-11-06T16:19:18.370Z,64.24
2022-11-06T16:21:49.168Z,63.71
2022-11-06T16:24:16.231Z,65.37
2022-11-06T16:26:45.592Z,64.78
2022-11-06T16:29:16.954Z,65.30
2022-11-06T16:31:43.618Z,64.90
2022-11-06T16:34:20.641Z,64.31
2022-11-06T16:36:58.749Z,65.35
2022-11-06T16:39:40.076Z,64.63
2022-11-06T16:42:16.859Z,65.65
2022-11-06T16:44:44.838Z,65.01
2022-11-06T16:47:12.776Z,64.15
2022-11-06T16:49:42.573Z,65.37
2022-11-06T16:52:27.082Z,65.39
2022-11-06T16:54:56.896Z,64.60
2022-11-06T16:57:25.238Z,64.25
2022-11-06T17:00:02.777Z,66.94
2022-11-06T17:02:31.525Z,65.37
2022-11-06T17:05:07.375Z,66.16
2022-11-06T17:07:33.927Z,67.60
2022-11-06T17:10:18.957Z,68.63
2022-11-06T17:12:45.400Z,68.66
2022-11-06T17:15:11.825Z,68.92
2022-11-06T17:17:40.155Z,70.46
2022-11-06T17:20:13.429Z,68.07
2022-11-06T17:22:39.876Z,67.06
2022-11-06T17:25:06.489Z,66.42
2022-11-06T17:27:32.905Z,68.14
2022-11-06T17:29:59.368Z,68.38
2022-11-06T17:32:25.840Z,69.84
2022-11-06T17:34:52.316Z,69.72
2022-11-06T17:37:21.914Z,69.71
2022-11-06T17:39:48.622Z,71.75
2022-11-06T17:42:15.085Z,72.33
2022-11-06T17:44:41.549Z,73.47
2022-11-06T17:47:08.060Z,72.32
2022-11-06T17:49:34.582Z,73.60
2022-11-06T17:52:01.340Z,73.19
2022-11-06T17:54:32.297Z,72.88
2022-11-06T17:57:00.141Z,74.27
2022-11-06T17:59:26.627Z,74.40
2022-11-06T18:01:54.592Z,75.00
2022-11-06T18:04:22.329Z,75.42
2022-11-06T18:06:50.953Z,75.02
2022-11-06T18:09:17.932Z,76.20
2022-11-06T18:11:44.460Z,75.07
2022-11-06T18:14:11.310Z,75.23
2022-11-06T18:16:43.422Z,75.34
2022-11-06T18:19:11.558Z,76.02
2022-11-06T18:21:38.231Z,76.49
2022-11-06T18:24:04.883Z,76.29
2022-11-06T18:26:31.351Z,75.38
2022-11-06T18:28:57.873Z,75.47
2022-11-06T18:31:24.373Z,75.27
2022-11-06T18:33:50.968Z,76.94
2022-11-06T18:36:17.424Z,76.78
2022-11-06T18:38:44.023Z,76.06
2022-11-06T18:41:14.984Z,77.17
2022-11-06T18:43:41.456Z,76.39
2022-11-06T18:46:09.129Z,76.31
2022-11-06T18:48:35.941Z,77.57
2022-11-06T18:51:06.537Z,78.34
2022-11-06T18:53:33.391Z,77.62
2022-11-06T18:55:59.929Z,77.53
2022-11-06T18:58:26.355Z,78.46
2022-11-06T19:00:54.376Z,77.63
2022-11-06T19:03:24.173Z,78.15
2022-11-06T19:05:51.627Z,78.77
2022-11-06T19:08:18.467Z,78.39
2022-11-06T19:10:45.601Z,78.43
2022-11-06T19:13:12.157Z,79.49
2022-11-06T19:15:38.943Z,79.22
2022-11-06T19:18:05.503Z,78.61
2022-11-06T19:20:31.940Z,78.87
2022-11-06T19:22:59.508Z,78.36
2022-11-06T19:25:26.039Z,77.52
2022-11-06T19:27:53.815Z,77.53
2022-11-06T19:30:20.247Z,78.31
2022-11-06T19:32:46.735Z,79.03
2022-11-06T19:35:15.232Z,79.24
2022-11-06T19:37:41.780Z,80.41
2022-11-06T19:40:08.447Z,80.73
2022-11-06T19:42:34.874Z,81.26
2022-11-06T19:45:01.487Z,81.82
2022-11-06T19:47:28.194Z,80.61
2022-11-06T19:49:54.627Z,79.77
2022-11-06T19:52:42.036Z,80.10
2022-11-06T19:55:25.487Z,81.10
2022-11-06T19:57:54.273Z,81.28
2022-11-06T20:00:20.753Z,81.96
2022-11-06T20:02:50.890Z,81.49
2022-11-06T20:05:17.580Z,83.32
2022-11-06T20:07:44.106Z,82.14
2022-11-06T20:10:10.573Z,83.10
2022-11-06T20:12:37.092Z,82.71
2022-11-06T20:15:03.877Z,82.86
2022-11-06T20:17:30.332Z,83.63
2022-11-06T20:19:56.756Z,83.53
2022-11-06T20:22:25.018Z,82.68
2022-11-06T20:24:51.477Z,83.91
2022-11-06T20:27:17.931Z,83.12
2022-11-06T20:29:44.781Z,82.80
2022-11-06T20:32:13.625Z,83.04
2022-11-06T20:34:42.652Z,82.72
2022-11-06T20:37:09.097Z,82.65
2022-11-06T20:39:35.810Z,83.36
2022-11-06T20:42:02.262Z,83.09
2022-11-06T20:44:28.701Z,83.03
2022-11-06T20:46:55.129Z,82.63
2022-11-06T20:49:21.629Z,82.76
2022-11-06T20:52:12.616Z,82.88
2022-11-06T20:54:34.506Z,82.38
2022-11-06T20:57:01.178Z,82.39
2022-11-06T20:59:27.692Z,83.36
2022-11-06T21:01:54.317Z,83.39
2022-11-06T21:04:21.415Z,82.82
2022-11-06T21:06:47.882Z,83.19
2022-11-06T21:09:16.589Z,82.98
2022-11-06T21:11:43.151Z,84.51
2022-11-06T21:14:09.655Z,84.80
2022-11-06T21:16:37.340Z,85.73
2022-11-06T21:19:04.832Z,86.75
2022-11-06T21:21:33.107Z,86.64
2022-11-06T21:24:00.329Z,85.95
2022-11-06T21:26:31.601Z,85.76
2022-11-06T21:28:58.278Z,85.30
2022-11-06T21:31:26.669Z,85.16
2022-11-06T21:33:55.441Z,86.38
2022-11-06T21:36:23.335Z,87.18
2022-11-06T21:38:49.742Z,87.59
2022-11-06T21:41:17.362Z,86.89
2022-11-06T21:43:44.226Z,86.77
2022-11-06T21:46:11.717Z,87.59
2022-11-06T21:48:47.244Z,87.58
2022-11-06T21:51:17.225Z,87.61
2022-11-06T21:54:02.282Z,87.69
2022-11-06T21:56:28.824Z,87.25
2022-11-06T21:58:56.580Z,87.34
2022-11-06T22:01:23.600Z,86.81
2022-11-06T22:03:50.350Z,86.58
2022-11-06T22:06:20.342Z,86.61
2022-11-06T22:08:47.528Z,87.22
2022-11-06T22:11:18.559Z,87.48
2022-11-06T22:13:45.569Z,87.41
2022-11-06T22:16:13.434Z,87.03
2022-11-06T22:18:40.252Z,86.38
2022-11-06T22:21:07.924Z,86.41
2022-11-06T22:23:34.927Z,86.77
2022-11-06T22:26:09.456Z,88.20
2022-11-06T22:28:35.919Z,87.65
2022-11-06T22:31:03.014Z,86.71
2022-11-06T22:33:30.071Z,87.34
2022-11-06T22:36:05.725Z,87.63
2022-11-06T22:38:32.753Z,87.91
2022-11-06T22:41:00.248Z,88.39
2022-11-06T22:43:27.354Z,89.17
2022-11-06T22:45:59.016Z,88.25
2022-11-06T22:48:26.038Z,87.60
2022-11-06T22:50:52.564Z,88.11
2022-11-06T22:53:19.613Z,89.04
2022-11-06T22:55:46.335Z,88.04
2022-11-06T22:58:12.766Z,88.14
2022-11-06T23:00:39.248Z,87.79
2022-11-06T23:03:05.806Z,88.92
2022-11-06T23:05:32.304Z,89.02
2022-11-06T23:07:58.751Z,88.21
2022-11-06T23:10:32.692Z,88.36
2022-11-06T23:12:59.178Z,88.64
2022-11-06T23:15:25.685Z,89.15
2022-11-06T23:17:52.456Z,89.11
2022-11-06T23:20:19.731Z,89.92
2022-11-06T23:22:46.839Z,90.54
2022-11-06T23:25:14.152Z,90.78
2022-11-06T23:27:46.963Z,91.15
2022-11-06T23:30:16.119Z,90.57
2022-11-06T23:32:42.681Z,90.09
2022-11-06T23:35:13.295Z,90.97
2022-11-06T23:37:41.373Z,90.18
2022-11-06T23:40:09.096Z,89.89
2022-11-06T23:42:35.777Z,88.56
2022-11-06T23:45:21.065Z,90.12
2022-11-06T23:47:48.158Z,90.63
2022-11-06T23:50:14.657Z,91.06
2022-11-06T23:52:41.085Z,90.84
2022-11-06T23:55:08.104Z,90.84
2022-11-06T23:57:34.591Z,91.16
